sensor_id;sensor_type;location;lat;lon;timestamp;P1;durP1;ratioP1;P2;durP2;ratioP2
30127;SDS011;16942;53.196;6.592;2022-09-09T00:03:51;18.40;;;9.83;;
30127;SDS011;16942;53.196;6.592;2022-09-09T00:06:23;16.00;;;10.30;;
30127;SDS011;16942;53.196;6.592;2022-09-09T00:09:02;15.13;;;10.53;;
30127;SDS011;16942;53.196;6.592;2022-09-09T00:17:03;15.37;;;9.80;;
30127;SDS011;16942;53.196;6.592;2022-09-09T00:27:11;20.50;;;11.40;;
30127;SDS011;16942;53.196;6.592;2022-09-09T00:29:43;17.13;;;10.70;;
30127;SDS011;16942;53.196;6.592;2022-09-09T00:32:18;16.23;;;11.23;;
30127;SDS011;16942;53.196;6.592;2022-09-09T00:35:12;15.47;;;10.10;;
30127;SDS011;16942;53.196;6.592;2022-09-09T00:37:40;15.50;;;10.37;;
30127;SDS011;16942;53.196;6.592;2022-09-09T00:40:52;15.80;;;10.97;;
30127;SDS011;16942;53.196;6.592;2022-09-09T00:48:21;14.20;;;9.27;;
30127;SDS011;16942;53.196;6.592;2022-09-09T00:50:59;14.03;;;9.40;;
30127;SDS011;16942;53.196;6.592;2022-09-09T00:59:46;19.03;;;10.47;;
30127;SDS011;16942;53.196;6.592;2022-09-09T01:04:53;18.23;;;9.03;;
30127;SDS011;16942;53.196;6.592;2022-09-09T01:07:19;13.70;;;10.10;;
30127;SDS011;16942;53.196;6.592;2022-09-09T01:12:43;16.80;;;9.27;;
30127;SDS011;16942;53.196;6.592;2022-09-09T01:15:15;15.20;;;9.23;;
30127;SDS011;16942;53.196;6.592;2022-09-09T01:17:57;13.17;;;8.63;;
30127;SDS011;16942;53.196;6.592;2022-09-09T01:26:26;17.97;;;9.57;;
30127;SDS011;16942;53.196;6.592;2022-09-09T01:29:01;15.10;;;9.67;;
30127;SDS011;16942;53.196;6.592;2022-09-09T01:31:32;15.60;;;9.73;;
30127;SDS011;16942;53.196;6.592;2022-09-09T01:34:07;15.63;;;10.10;;
30127;SDS011;16942;53.196;6.592;2022-09-09T01:37:22;15.73;;;9.87;;
30127;SDS011;16942;53.196;6.592;2022-09-09T01:39:25;12.57;;;9.53;;
30127;SDS011;16942;53.196;6.592;2022-09-09T01:41:52;14.80;;;9.43;;
30127;SDS011;16942;53.196;6.592;2022-09-09T01:44:19;18.27;;;8.97;;
30127;SDS011;16942;53.196;6.592;2022-09-09T01:46:45;17.33;;;9.60;;
30127;SDS011;16942;53.196;6.592;2022-09-09T01:49:11;13.03;;;8.67;;
30127;SDS011;16942;53.196;6.592;2022-09-09T01:51:37;17.70;;;9.70;;
30127;SDS011;16942;53.196;6.592;2022-09-09T01:54:05;13.40;;;9.43;;
30127;SDS011;16942;53.196;6.592;2022-09-09T01:56:37;14.77;;;9.50;;
30127;SDS011;16942;53.196;6.592;2022-09-09T02:07:13;14.73;;;9.50;;
30127;SDS011;16942;53.196;6.592;2022-09-09T02:10:05;15.07;;;11.10;;
30127;SDS011;16942;53.196;6.592;2022-09-09T02:12:55;17.23;;;10.43;;
30127;SDS011;16942;53.196;6.592;2022-09-09T02:19:11;15.10;;;10.97;;
30127;SDS011;16942;53.196;6.592;2022-09-09T02:21:22;17.37;;;11.53;;
30127;SDS011;16942;53.196;6.592;2022-09-09T02:23:49;19.40;;;10.90;;
30127;SDS011;16942;53.196;6.592;2022-09-09T02:26:17;19.10;;;10.33;;
30127;SDS011;16942;53.196;6.592;2022-09-09T02:28:47;20.33;;;10.77;;
30127;SDS011;16942;53.196;6.592;2022-09-09T02:31:15;16.73;;;11.13;;
30127;SDS011;16942;53.196;6.592;2022-09-09T02:33:44;17.03;;;10.63;;
30127;SDS011;16942;53.196;6.592;2022-09-09T02:36:16;16.87;;;11.00;;
30127;SDS011;16942;53.196;6.592;2022-09-09T02:38:45;17.17;;;10.33;;
30127;SDS011;16942;53.196;6.592;2022-09-09T02:41:15;15.97;;;11.00;;
30127;SDS011;16942;53.196;6.592;2022-09-09T02:43:46;14.80;;;10.87;;
30127;SDS011;16942;53.196;6.592;2022-09-09T02:51:45;14.63;;;10.17;;
30127;SDS011;16942;53.196;6.592;2022-09-09T02:54:29;16.57;;;10.37;;
30127;SDS011;16942;53.196;6.592;2022-09-09T02:57:05;19.23;;;10.50;;
30127;SDS011;16942;53.196;6.592;2022-09-09T02:59:35;17.33;;;9.37;;
30127;SDS011;16942;53.196;6.592;2022-09-09T03:02:01;20.77;;;10.00;;
30127;SDS011;16942;53.196;6.592;2022-09-09T03:04:27;22.57;;;9.77;;
30127;SDS011;16942;53.196;6.592;2022-09-09T03:06:54;19.00;;;11.97;;
30127;SDS011;16942;53.196;6.592;2022-09-09T03:09:19;13.13;;;9.00;;
30127;SDS011;16942;53.196;6.592;2022-09-09T03:11:45;13.80;;;9.77;;
30127;SDS011;16942;53.196;6.592;2022-09-09T03:14:10;16.40;;;8.80;;
30127;SDS011;16942;53.196;6.592;2022-09-09T03:16:36;15.77;;;9.53;;
30127;SDS011;16942;53.196;6.592;2022-09-09T03:19:02;17.20;;;9.50;;
30127;SDS011;16942;53.196;6.592;2022-09-09T03:21:28;13.40;;;9.30;;
30127;SDS011;16942;53.196;6.592;2022-09-09T03:23:53;14.33;;;7.70;;
30127;SDS011;16942;53.196;6.592;2022-09-09T03:26:20;16.63;;;8.20;;
30127;SDS011;16942;53.196;6.592;2022-09-09T03:28:46;10.77;;;7.80;;
30127;SDS011;16942;53.196;6.592;2022-09-09T03:31:11;7.90;;;6.70;;
30127;SDS011;16942;53.196;6.592;2022-09-09T03:33:37;9.90;;;7.27;;
30127;SDS011;16942;53.196;6.592;2022-09-09T03:36:04;9.73;;;7.20;;
30127;SDS011;16942;53.196;6.592;2022-09-09T03:38:30;11.60;;;6.73;;
30127;SDS011;16942;53.196;6.592;2022-09-09T03:40:57;8.67;;;6.80;;
30127;SDS011;16942;53.196;6.592;2022-09-09T03:43:23;11.93;;;7.10;;
30127;SDS011;16942;53.196;6.592;2022-09-09T03:45:50;11.30;;;6.60;;
30127;SDS011;16942;53.196;6.592;2022-09-09T03:48:16;10.40;;;6.33;;
30127;SDS011;16942;53.196;6.592;2022-09-09T03:50:46;10.10;;;6.40;;
30127;SDS011;16942;53.196;6.592;2022-09-09T03:53:16;13.23;;;6.20;;
30127;SDS011;16942;53.196;6.592;2022-09-09T03:55:47;9.17;;;5.77;;
30127;SDS011;16942;53.196;6.592;2022-09-09T03:58:15;12.27;;;6.20;;
30127;SDS011;16942;53.196;6.592;2022-09-09T04:00:43;7.57;;;5.20;;
30127;SDS011;16942;53.196;6.592;2022-09-09T04:03:17;6.90;;;4.97;;
30127;SDS011;16942;53.196;6.592;2022-09-09T04:05:44;8.67;;;4.90;;
30127;SDS011;16942;53.196;6.592;2022-09-09T04:08:09;8.40;;;4.27;;
30127;SDS011;16942;53.196;6.592;2022-09-09T04:10:36;10.27;;;4.27;;
30127;SDS011;16942;53.196;6.592;2022-09-09T04:13:02;10.03;;;3.70;;
30127;SDS011;16942;53.196;6.592;2022-09-09T04:15:31;7.10;;;3.40;;
30127;SDS011;16942;53.196;6.592;2022-09-09T04:17:58;3.70;;;3.30;;
30127;SDS011;16942;53.196;6.592;2022-09-09T04:20:23;8.63;;;3.33;;
30127;SDS011;16942;53.196;6.592;2022-09-09T04:22:49;6.00;;;3.13;;
30127;SDS011;16942;53.196;6.592;2022-09-09T04:25:15;8.03;;;3.60;;
30127;SDS011;16942;53.196;6.592;2022-09-09T04:27:40;6.70;;;3.40;;
30127;SDS011;16942;53.196;6.592;2022-09-09T04:30:07;6.20;;;2.90;;
30127;SDS011;16942;53.196;6.592;2022-09-09T04:32:34;7.70;;;3.80;;
30127;SDS011;16942;53.196;6.592;2022-09-09T04:35:00;8.37;;;3.73;;
30127;SDS011;16942;53.196;6.592;2022-09-09T04:37:26;6.47;;;3.17;;
30127;SDS011;16942;53.196;6.592;2022-09-09T04:39:52;8.43;;;3.53;;
30127;SDS011;16942;53.196;6.592;2022-09-09T04:42:17;6.70;;;3.50;;
30127;SDS011;16942;53.196;6.592;2022-09-09T04:44:44;7.53;;;3.80;;
30127;SDS011;16942;53.196;6.592;2022-09-09T04:47:09;10.13;;;3.50;;
30127;SDS011;16942;53.196;6.592;2022-09-09T04:49:36;8.03;;;4.13;;
30127;SDS011;16942;53.196;6.592;2022-09-09T04:52:02;6.17;;;3.53;;
30127;SDS011;16942;53.196;6.592;2022-09-09T04:54:28;6.73;;;3.97;;
30127;SDS011;16942;53.196;6.592;2022-09-09T04:56:54;7.10;;;4.37;;
30127;SDS011;16942;53.196;6.592;2022-09-09T04:59:20;9.00;;;4.23;;
30127;SDS011;16942;53.196;6.592;2022-09-09T05:01:46;7.53;;;4.53;;
30127;SDS011;16942;53.196;6.592;2022-09-09T05:04:13;8.07;;;4.33;;
30127;SDS011;16942;53.196;6.592;2022-09-09T05:06:40;7.53;;;4.70;;
30127;SDS011;16942;53.196;6.592;2022-09-09T05:09:07;8.07;;;4.97;;
30127;SDS011;16942;53.196;6.592;2022-09-09T05:11:33;7.63;;;4.93;;
30127;SDS011;16942;53.196;6.592;2022-09-09T05:14:01;10.50;;;5.10;;
30127;SDS011;16942;53.196;6.592;2022-09-09T05:16:27;9.77;;;5.10;;
30127;SDS011;16942;53.196;6.592;2022-09-09T05:18:53;12.63;;;6.00;;
30127;SDS011;16942;53.196;6.592;2022-09-09T05:21:19;7.77;;;5.80;;
30127;SDS011;16942;53.196;6.592;2022-09-09T05:23:46;12.43;;;6.27;;
30127;SDS011;16942;53.196;6.592;2022-09-09T05:26:16;8.53;;;5.80;;
30127;SDS011;16942;53.196;6.592;2022-09-09T05:28:43;8.57;;;5.83;;
30127;SDS011;16942;53.196;6.592;2022-09-09T05:31:10;11.13;;;6.47;;
30127;SDS011;16942;53.196;6.592;2022-09-09T05:33:37;8.57;;;6.13;;
30127;SDS011;16942;53.196;6.592;2022-09-09T05:36:09;8.53;;;6.80;;
30127;SDS011;16942;53.196;6.592;2022-09-09T05:38:38;9.40;;;6.97;;
30127;SDS011;16942;53.196;6.592;2022-09-09T05:41:05;15.20;;;7.00;;
30127;SDS011;16942;53.196;6.592;2022-09-09T05:43:31;14.90;;;7.57;;
30127;SDS011;16942;53.196;6.592;2022-09-09T05:46:11;13.17;;;7.67;;
30127;SDS011;16942;53.196;6.592;2022-09-09T05:48:38;12.93;;;7.43;;
30127;SDS011;16942;53.196;6.592;2022-09-09T05:51:06;15.30;;;7.80;;
30127;SDS011;16942;53.196;6.592;2022-09-09T05:53:33;12.43;;;7.93;;
30127;SDS011;16942;53.196;6.592;2022-09-09T05:56:07;15.30;;;7.90;;
30127;SDS011;16942;53.196;6.592;2022-09-09T05:58:37;16.20;;;9.23;;
30127;SDS011;16942;53.196;6.592;2022-09-09T06:01:15;13.27;;;8.80;;
30127;SDS011;16942;53.196;6.592;2022-09-09T06:03:43;12.70;;;8.00;;
30127;SDS011;16942;53.196;6.592;2022-09-09T06:06:11;10.57;;;7.97;;
30127;SDS011;16942;53.196;6.592;2022-09-09T06:08:40;14.33;;;8.07;;
30127;SDS011;16942;53.196;6.592;2022-09-09T06:11:13;10.63;;;7.93;;
30127;SDS011;16942;53.196;6.592;2022-09-09T06:13:40;14.20;;;8.53;;
30127;SDS011;16942;53.196;6.592;2022-09-09T06:16:14;15.23;;;8.43;;
30127;SDS011;16942;53.196;6.592;2022-09-09T06:18:41;10.47;;;8.20;;
30127;SDS011;16942;53.196;6.592;2022-09-09T06:21:20;12.67;;;7.70;;
30127;SDS011;16942;53.196;6.592;2022-09-09T06:23:48;14.10;;;8.80;;
30127;SDS011;16942;53.196;6.592;2022-09-09T06:26:48;13.07;;;8.50;;
30127;SDS011;16942;53.196;6.592;2022-09-09T06:29:07;13.40;;;7.30;;
30127;SDS011;16942;53.196;6.592;2022-09-09T06:31:34;12.63;;;7.57;;
30127;SDS011;16942;53.196;6.592;2022-09-09T06:34:02;12.60;;;7.37;;
30127;SDS011;16942;53.196;6.592;2022-09-09T06:36:30;11.83;;;7.10;;
30127;SDS011;16942;53.196;6.592;2022-09-09T06:38:57;11.17;;;7.60;;
30127;SDS011;16942;53.196;6.592;2022-09-09T06:41:24;14.77;;;7.40;;
30127;SDS011;16942;53.196;6.592;2022-09-09T06:43:55;12.37;;;7.43;;
30127;SDS011;16942;53.196;6.592;2022-09-09T06:46:22;9.50;;;7.43;;
30127;SDS011;16942;53.196;6.592;2022-09-09T06:48:52;10.63;;;7.17;;
30127;SDS011;16942;53.196;6.592;2022-09-09T06:51:23;10.20;;;6.80;;
30127;SDS011;16942;53.196;6.592;2022-09-09T06:53:52;11.33;;;7.03;;
30127;SDS011;16942;53.196;6.592;2022-09-09T06:58:48;11.23;;;6.87;;
30127;SDS011;16942;53.196;6.592;2022-09-09T07:01:18;13.20;;;6.93;;
30127;SDS011;16942;53.196;6.592;2022-09-09T07:03:50;8.57;;;6.33;;
30127;SDS011;16942;53.196;6.592;2022-09-09T07:06:19;8.47;;;6.23;;
30127;SDS011;16942;53.196;6.592;2022-09-09T07:08:52;10.97;;;6.07;;
30127;SDS011;16942;53.196;6.592;2022-09-09T07:11:20;8.80;;;6.33;;
30127;SDS011;16942;53.196;6.592;2022-09-09T07:13:47;10.03;;;6.60;;
30127;SDS011;16942;53.196;6.592;2022-09-09T07:16:14;9.97;;;6.20;;
30127;SDS011;16942;53.196;6.592;2022-09-09T07:18:42;8.73;;;5.77;;
30127;SDS011;16942;53.196;6.592;2022-09-09T07:21:09;11.77;;;6.13;;
30127;SDS011;16942;53.196;6.592;2022-09-09T07:23:36;9.00;;;6.20;;
30127;SDS011;16942;53.196;6.592;2022-09-09T07:26:06;8.57;;;6.83;;
30127;SDS011;16942;53.196;6.592;2022-09-09T07:28:33;9.30;;;5.80;;
30127;SDS011;16942;53.196;6.592;2022-09-09T07:31:00;10.93;;;6.73;;
30127;SDS011;16942;53.196;6.592;2022-09-09T07:33:27;9.30;;;6.57;;
30127;SDS011;16942;53.196;6.592;2022-09-09T07:36:01;9.37;;;5.90;;
30127;SDS011;16942;53.196;6.592;2022-09-09T07:38:32;7.37;;;6.43;;
30127;SDS011;16942;53.196;6.592;2022-09-09T07:41:14;9.73;;;6.17;;
30127;SDS011;16942;53.196;6.592;2022-09-09T07:43:42;7.93;;;6.00;;
30127;SDS011;16942;53.196;6.592;2022-09-09T07:46:09;9.10;;;5.80;;
30127;SDS011;16942;53.196;6.592;2022-09-09T07:48:37;9.03;;;5.80;;
30127;SDS011;16942;53.196;6.592;2022-09-09T07:51:13;7.50;;;6.00;;
30127;SDS011;16942;53.196;6.592;2022-09-09T07:53:44;9.23;;;5.60;;
30127;SDS011;16942;53.196;6.592;2022-09-09T07:56:12;9.73;;;6.13;;
30127;SDS011;16942;53.196;6.592;2022-09-09T07:58:40;10.20;;;6.20;;
30127;SDS011;16942;53.196;6.592;2022-09-09T08:01:13;6.03;;;4.67;;
30127;SDS011;16942;53.196;6.592;2022-09-09T08:03:45;8.53;;;5.17;;
30127;SDS011;16942;53.196;6.592;2022-09-09T08:06:12;7.40;;;5.40;;
30127;SDS011;16942;53.196;6.592;2022-09-09T08:08:38;7.77;;;5.47;;
30127;SDS011;16942;53.196;6.592;2022-09-09T08:11:13;6.60;;;4.77;;
30127;SDS011;16942;53.196;6.592;2022-09-09T08:13:41;9.87;;;5.07;;
30127;SDS011;16942;53.196;6.592;2022-09-09T08:16:09;11.57;;;5.37;;
30127;SDS011;16942;53.196;6.592;2022-09-09T08:18:37;7.50;;;5.13;;
30127;SDS011;16942;53.196;6.592;2022-09-09T08:21:13;8.97;;;5.07;;
30127;SDS011;16942;53.196;6.592;2022-09-09T08:23:42;6.60;;;4.63;;
30127;SDS011;16942;53.196;6.592;2022-09-09T08:26:20;6.87;;;4.90;;
30127;SDS011;16942;53.196;6.592;2022-09-09T08:28:51;6.63;;;5.03;;
30127;SDS011;16942;53.196;6.592;2022-09-09T08:33:48;6.43;;;4.63;;
30127;SDS011;16942;53.196;6.592;2022-09-09T08:36:15;7.00;;;4.57;;
30127;SDS011;16942;53.196;6.592;2022-09-09T08:38:50;4.73;;;4.03;;
30127;SDS011;16942;53.196;6.592;2022-09-09T08:41:27;5.90;;;4.10;;
30127;SDS011;16942;53.196;6.592;2022-09-09T08:44:12;5.63;;;3.90;;
30127;SDS011;16942;53.196;6.592;2022-09-09T08:52:14;5.83;;;4.70;;
30127;SDS011;16942;53.196;6.592;2022-09-09T08:55:10;8.90;;;3.83;;
30127;SDS011;16942;53.196;6.592;2022-09-09T08:57:40;7.70;;;3.97;;
30127;SDS011;16942;53.196;6.592;2022-09-09T09:00:07;7.60;;;3.90;;
30127;SDS011;16942;53.196;6.592;2022-09-09T09:05:45;5.80;;;3.80;;
30127;SDS011;16942;53.196;6.592;2022-09-09T09:08:17;6.20;;;4.17;;
30127;SDS011;16942;53.196;6.592;2022-09-09T09:10:51;7.33;;;3.77;;
30127;SDS011;16942;53.196;6.592;2022-09-09T09:16:29;8.53;;;3.97;;
30127;SDS011;16942;53.196;6.592;2022-09-09T09:18:57;8.87;;;4.20;;
30127;SDS011;16942;53.196;6.592;2022-09-09T09:21:45;7.73;;;3.90;;
30127;SDS011;16942;53.196;6.592;2022-09-09T09:26:40;6.53;;;3.50;;
30127;SDS011;16942;53.196;6.592;2022-09-09T09:29:18;10.73;;;4.00;;
30127;SDS011;16942;53.196;6.592;2022-09-09T09:31:53;9.17;;;3.97;;
30127;SDS011;16942;53.196;6.592;2022-09-09T09:34:22;5.57;;;3.43;;
30127;SDS011;16942;53.196;6.592;2022-09-09T09:36:53;8.33;;;3.87;;
30127;SDS011;16942;53.196;6.592;2022-09-09T09:39:27;4.77;;;3.27;;
30127;SDS011;16942;53.196;6.592;2022-09-09T09:41:54;5.60;;;3.50;;
30127;SDS011;16942;53.196;6.592;2022-09-09T09:44:29;6.32;;;3.20;;
30127;SDS011;16942;53.196;6.592;2022-09-09T09:47:07;6.97;;;3.83;;
30127;SDS011;16942;53.196;6.592;2022-09-09T09:49:38;5.37;;;3.20;;
30127;SDS011;16942;53.196;6.592;2022-09-09T09:52:04;5.77;;;3.13;;
30127;SDS011;16942;53.196;6.592;2022-09-09T09:54:37;8.43;;;2.93;;
30127;SDS011;16942;53.196;6.592;2022-09-09T09:57:14;19.67;;;3.70;;
30127;SDS011;16942;53.196;6.592;2022-09-09T09:59:41;11.13;;;3.10;;
30127;SDS011;16942;53.196;6.592;2022-09-09T10:02:18;6.80;;;2.53;;
30127;SDS011;16942;53.196;6.592;2022-09-09T10:04:45;7.47;;;2.93;;
30127;SDS011;16942;53.196;6.592;2022-09-09T10:07:21;8.03;;;2.33;;
30127;SDS011;16942;53.196;6.592;2022-09-09T10:09:53;7.00;;;3.13;;
30127;SDS011;16942;53.196;6.592;2022-09-09T10:12:30;8.80;;;3.30;;
30127;SDS011;16942;53.196;6.592;2022-09-09T10:25:51;8.93;;;3.10;;
30127;SDS011;16942;53.196;6.592;2022-09-09T10:28:28;10.70;;;2.77;;
30127;SDS011;16942;53.196;6.592;2022-09-09T10:34:14;7.90;;;2.87;;
30127;SDS011;16942;53.196;6.592;2022-09-09T10:37:36;7.43;;;2.50;;
30127;SDS011;16942;53.196;6.592;2022-09-09T10:40:15;10.87;;;2.67;;
30127;SDS011;16942;53.196;6.592;2022-09-09T10:56:25;5.93;;;2.13;;
30127;SDS011;16942;53.196;6.592;2022-09-09T11:04:16;8.50;;;1.83;;
30127;SDS011;16942;53.196;6.592;2022-09-09T11:06:52;5.90;;;1.77;;
30127;SDS011;16942;53.196;6.592;2022-09-09T11:09:21;8.77;;;2.37;;
30127;SDS011;16942;53.196;6.592;2022-09-09T11:14:26;4.22;;;1.75;;
30127;SDS011;16942;53.196;6.592;2022-09-09T11:17:18;5.23;;;1.43;;
30127;SDS011;16942;53.196;6.592;2022-09-09T11:19:52;5.15;;;1.50;;
30127;SDS011;16942;53.196;6.592;2022-09-09T11:22:37;8.20;;;1.58;;
30127;SDS011;16942;53.196;6.592;2022-09-09T11:25:23;5.00;;;1.60;;
30127;SDS011;16942;53.196;6.592;2022-09-09T11:33:26;9.27;;;1.88;;
30127;SDS011;16942;53.196;6.592;2022-09-09T11:41:46;5.45;;;1.73;;
30127;SDS011;16942;53.196;6.592;2022-09-09T11:44:12;3.75;;;1.40;;
30127;SDS011;16942;53.196;6.592;2022-09-09T11:46:52;5.65;;;1.77;;
30127;SDS011;16942;53.196;6.592;2022-09-09T11:49:27;3.60;;;1.40;;
30127;SDS011;16942;53.196;6.592;2022-09-09T11:51:56;5.45;;;2.13;;
30127;SDS011;16942;53.196;6.592;2022-09-09T11:54:32;8.68;;;1.58;;
30127;SDS011;16942;53.196;6.592;2022-09-09T11:57:23;4.63;;;1.58;;
30127;SDS011;16942;53.196;6.592;2022-09-09T11:59:51;7.22;;;1.95;;
30127;SDS011;16942;53.196;6.592;2022-09-09T12:02:24;5.38;;;1.63;;
30127;SDS011;16942;53.196;6.592;2022-09-09T12:04:57;7.43;;;1.50;;
30127;SDS011;16942;53.196;6.592;2022-09-09T12:07:31;3.72;;;1.65;;
30127;SDS011;16942;53.196;6.592;2022-09-09T12:15:56;8.07;;;1.35;;
30127;SDS011;16942;53.196;6.592;2022-09-09T12:18:24;4.97;;;1.45;;
30127;SDS011;16942;53.196;6.592;2022-09-09T12:26:34;4.15;;;1.50;;
30127;SDS011;16942;53.196;6.592;2022-09-09T12:31:58;8.35;;;1.98;;
30127;SDS011;16942;53.196;6.592;2022-09-09T12:34:33;5.35;;;1.50;;
30127;SDS011;16942;53.196;6.592;2022-09-09T12:37:11;5.45;;;1.40;;
30127;SDS011;16942;53.196;6.592;2022-09-09T12:39:42;6.43;;;1.50;;
30127;SDS011;16942;53.196;6.592;2022-09-09T12:42:19;5.15;;;1.33;;
30127;SDS011;16942;53.196;6.592;2022-09-09T12:47:37;9.80;;;2.42;;
30127;SDS011;16942;53.196;6.592;2022-09-09T12:50:15;5.18;;;1.48;;
30127;SDS011;16942;53.196;6.592;2022-09-09T12:52:52;6.47;;;1.50;;
30127;SDS011;16942;53.196;6.592;2022-09-09T12:55:23;5.03;;;1.30;;
30127;SDS011;16942;53.196;6.592;2022-09-09T12:57:52;5.07;;;1.70;;
30127;SDS011;16942;53.196;6.592;2022-09-09T13:00:20;4.88;;;1.35;;
30127;SDS011;16942;53.196;6.592;2022-09-09T13:02:55;9.38;;;1.30;;
30127;SDS011;16942;53.196;6.592;2022-09-09T13:05:23;4.10;;;1.65;;
30127;SDS011;16942;53.196;6.592;2022-09-09T13:07:49;9.60;;;1.27;;
30127;SDS011;16942;53.196;6.592;2022-09-09T13:10:19;6.85;;;1.73;;
30127;SDS011;16942;53.196;6.592;2022-09-09T13:12:51;4.82;;;1.30;;
30127;SDS011;16942;53.196;6.592;2022-09-09T13:15:22;4.95;;;1.50;;
30127;SDS011;16942;53.196;6.592;2022-09-09T13:17:56;7.72;;;1.50;;
30127;SDS011;16942;53.196;6.592;2022-09-09T13:20:28;4.82;;;1.40;;
30127;SDS011;16942;53.196;6.592;2022-09-09T13:22:54;3.40;;;1.30;;
30127;SDS011;16942;53.196;6.592;2022-09-09T13:25:24;3.20;;;1.25;;
30127;SDS011;16942;53.196;6.592;2022-09-09T13:27:58;3.75;;;1.45;;
30127;SDS011;16942;53.196;6.592;2022-09-09T13:30:28;4.72;;;1.67;;
30127;SDS011;16942;53.196;6.592;2022-09-09T13:35:34;5.25;;;1.40;;
30127;SDS011;16942;53.196;6.592;2022-09-09T13:38:09;5.85;;;1.25;;
30127;SDS011;16942;53.196;6.592;2022-09-09T13:40:38;5.38;;;1.52;;
30127;SDS011;16942;53.196;6.592;2022-09-09T13:43:04;3.30;;;1.30;;
30127;SDS011;16942;53.196;6.592;2022-09-09T13:45:30;2.78;;;1.30;;
30127;SDS011;16942;53.196;6.592;2022-09-09T13:47:56;4.95;;;1.50;;
30127;SDS011;16942;53.196;6.592;2022-09-09T13:50:28;3.20;;;1.13;;
30127;SDS011;16942;53.196;6.592;2022-09-09T13:52:55;7.80;;;1.42;;
30127;SDS011;16942;53.196;6.592;2022-09-09T13:55:23;4.50;;;1.45;;
30127;SDS011;16942;53.196;6.592;2022-09-09T13:57:57;4.82;;;1.52;;
30127;SDS011;16942;53.196;6.592;2022-09-09T14:00:31;3.08;;;1.13;;
30127;SDS011;16942;53.196;6.592;2022-09-09T14:02:58;2.97;;;1.35;;
30127;SDS011;16942;53.196;6.592;2022-09-09T14:05:29;8.55;;;1.60;;
30127;SDS011;16942;53.196;6.592;2022-09-09T14:07:57;8.27;;;1.30;;
30127;SDS011;16942;53.196;6.592;2022-09-09T14:10:23;1.98;;;0.82;;
30127;SDS011;16942;53.196;6.592;2022-09-09T14:12:48;2.58;;;1.10;;
30127;SDS011;16942;53.196;6.592;2022-09-09T14:15:14;3.13;;;0.68;;
30127;SDS011;16942;53.196;6.592;2022-09-09T14:17:40;1.85;;;0.80;;
30127;SDS011;16942;53.196;6.592;2022-09-09T14:20:06;2.22;;;0.50;;
30127;SDS011;16942;53.196;6.592;2022-09-09T14:22:33;2.58;;;1.05;;
30127;SDS011;16942;53.196;6.592;2022-09-09T14:24:59;1.27;;;0.60;;
30127;SDS011;16942;53.196;6.592;2022-09-09T14:27:24;3.25;;;0.90;;
30127;SDS011;16942;53.196;6.592;2022-09-09T14:29:51;4.47;;;0.73;;
30127;SDS011;16942;53.196;6.592;2022-09-09T14:32:17;2.38;;;1.00;;
30127;SDS011;16942;53.196;6.592;2022-09-09T14:34:43;1.98;;;0.80;;
30127;SDS011;16942;53.196;6.592;2022-09-09T14:37:09;1.63;;;0.82;;
30127;SDS011;16942;53.196;6.592;2022-09-09T14:39:34;2.00;;;1.00;;
30127;SDS011;16942;53.196;6.592;2022-09-09T14:42:00;2.13;;;0.70;;
30127;SDS011;16942;53.196;6.592;2022-09-09T14:44:27;0.93;;;0.70;;
30127;SDS011;16942;53.196;6.592;2022-09-09T14:46:53;1.38;;;0.70;;
30127;SDS011;16942;53.196;6.592;2022-09-09T14:49:19;2.25;;;0.80;;
30127;SDS011;16942;53.196;6.592;2022-09-09T14:51:45;4.32;;;0.77;;
30127;SDS011;16942;53.196;6.592;2022-09-09T14:54:10;2.45;;;0.80;;
30127;SDS011;16942;53.196;6.592;2022-09-09T14:56:37;1.30;;;0.73;;
30127;SDS011;16942;53.196;6.592;2022-09-09T14:59:03;1.15;;;0.50;;
30127;SDS011;16942;53.196;6.592;2022-09-09T15:01:29;5.53;;;1.00;;
30127;SDS011;16942;53.196;6.592;2022-09-09T15:04:00;2.63;;;0.98;;
30127;SDS011;16942;53.196;6.592;2022-09-09T15:06:28;4.55;;;1.10;;
30127;SDS011;16942;53.196;6.592;2022-09-09T15:08:57;2.88;;;1.15;;
30127;SDS011;16942;53.196;6.592;2022-09-09T15:11:25;2.60;;;0.80;;
30127;SDS011;16942;53.196;6.592;2022-09-09T15:13:53;5.78;;;1.45;;
30127;SDS011;16942;53.196;6.592;2022-09-09T15:16:19;7.80;;;1.30;;
30127;SDS011;16942;53.196;6.592;2022-09-09T15:18:50;3.70;;;1.00;;
30127;SDS011;16942;53.196;6.592;2022-09-09T15:21:20;4.95;;;1.38;;
30127;SDS011;16942;53.196;6.592;2022-09-09T15:23:47;2.15;;;1.02;;
30127;SDS011;16942;53.196;6.592;2022-09-09T15:26:14;4.63;;;1.13;;
30127;SDS011;16942;53.196;6.592;2022-09-09T15:28:40;2.45;;;1.13;;
30127;SDS011;16942;53.196;6.592;2022-09-09T15:31:09;1.83;;;1.05;;
30127;SDS011;16942;53.196;6.592;2022-09-09T15:33:39;2.67;;;1.10;;
30127;SDS011;16942;53.196;6.592;2022-09-09T15:38:50;5.25;;;1.20;;
30127;SDS011;16942;53.196;6.592;2022-09-09T15:41:17;3.13;;;1.00;;
30127;SDS011;16942;53.196;6.592;2022-09-09T15:43:48;2.70;;;1.20;;
30127;SDS011;16942;53.196;6.592;2022-09-09T15:48:52;3.03;;;0.98;;
30127;SDS011;16942;53.196;6.592;2022-09-09T15:51:19;1.90;;;0.80;;
30127;SDS011;16942;53.196;6.592;2022-09-09T15:53:45;0.90;;;0.70;;
30127;SDS011;16942;53.196;6.592;2022-09-09T15:56:12;1.83;;;0.80;;
30127;SDS011;16942;53.196;6.592;2022-09-09T15:58:37;0.95;;;0.60;;
30127;SDS011;16942;53.196;6.592;2022-09-09T16:01:03;2.42;;;0.70;;
30127;SDS011;16942;53.196;6.592;2022-09-09T16:03:33;4.97;;;0.90;;
30127;SDS011;16942;53.196;6.592;2022-09-09T16:06:00;2.45;;;0.80;;
30127;SDS011;16942;53.196;6.592;2022-09-09T16:08:31;4.38;;;1.00;;
30127;SDS011;16942;53.196;6.592;2022-09-09T16:11:03;2.20;;;0.93;;
30127;SDS011;16942;53.196;6.592;2022-09-09T16:13:38;1.83;;;0.77;;
30127;SDS011;16942;53.196;6.592;2022-09-09T16:16:04;1.77;;;0.73;;
30127;SDS011;16942;53.196;6.592;2022-09-09T16:18:38;1.73;;;0.98;;
30127;SDS011;16942;53.196;6.592;2022-09-09T16:21:06;2.42;;;0.98;;
30127;SDS011;16942;53.196;6.592;2022-09-09T16:23:33;1.92;;;0.90;;
30127;SDS011;16942;53.196;6.592;2022-09-09T16:26:02;1.83;;;1.00;;
30127;SDS011;16942;53.196;6.592;2022-09-09T16:28:28;2.42;;;0.80;;
30127;SDS011;16942;53.196;6.592;2022-09-09T16:30:54;1.58;;;1.00;;
30127;SDS011;16942;53.196;6.592;2022-09-09T16:33:20;2.85;;;0.90;;
30127;SDS011;16942;53.196;6.592;2022-09-09T16:35:45;3.03;;;1.00;;
30127;SDS011;16942;53.196;6.592;2022-09-09T16:38:11;2.83;;;0.90;;
30127;SDS011;16942;53.196;6.592;2022-09-09T16:40:37;1.50;;;1.02;;
30127;SDS011;16942;53.196;6.592;2022-09-09T16:43:06;1.83;;;1.10;;
30127;SDS011;16942;53.196;6.592;2022-09-09T16:45:32;1.95;;;1.00;;
30127;SDS011;16942;53.196;6.592;2022-09-09T16:47:58;3.70;;;1.02;;
30127;SDS011;16942;53.196;6.592;2022-09-09T16:50:25;2.67;;;1.20;;
30127;SDS011;16942;53.196;6.592;2022-09-09T16:52:51;2.58;;;1.27;;
30127;SDS011;16942;53.196;6.592;2022-09-09T16:55:18;2.97;;;1.23;;
30127;SDS011;16942;53.196;6.592;2022-09-09T16:57:45;2.80;;;1.00;;
30127;SDS011;16942;53.196;6.592;2022-09-09T17:00:14;4.05;;;1.45;;
30127;SDS011;16942;53.196;6.592;2022-09-09T17:02:41;4.07;;;1.27;;
30127;SDS011;16942;53.196;6.592;2022-09-09T17:05:08;2.50;;;1.30;;
30127;SDS011;16942;53.196;6.592;2022-09-09T17:07:34;3.40;;;1.30;;
30127;SDS011;16942;53.196;6.592;2022-09-09T17:10:00;5.05;;;1.50;;
30127;SDS011;16942;53.196;6.592;2022-09-09T17:12:26;2.10;;;1.50;;
30127;SDS011;16942;53.196;6.592;2022-09-09T17:14:52;3.28;;;1.40;;
30127;SDS011;16942;53.196;6.592;2022-09-09T17:17:20;5.50;;;1.73;;
30127;SDS011;16942;53.196;6.592;2022-09-09T17:19:46;4.35;;;1.08;;
30127;SDS011;16942;53.196;6.592;2022-09-09T17:22:12;3.60;;;1.70;;
30127;SDS011;16942;53.196;6.592;2022-09-09T17:24:37;5.17;;;1.67;;
30127;SDS011;16942;53.196;6.592;2022-09-09T17:27:03;3.17;;;1.30;;